createdAt,value
2019-05-02T00:00:11.190Z,43.02
2019-05-02T00:02:42.051Z,44.48
2019-05-02T00:05:12.128Z,44.15
2019-05-02T00:07:41.768Z,43.80
2019-05-02T00:10:11.872Z,44.20
2019-05-02T00:12:40.749Z,44.55
2019-05-02T00:15:10.688Z,44.13
2019-05-02T00:17:40.631Z,45.40
2019-05-02T00:20:09.873Z,46.13
2019-05-02T00:22:38.976Z,48.08
2019-05-02T00:25:11.135Z,46.50
2019-05-02T00:27:39.048Z,48.70
2019-05-02T00:30:08.525Z,47.58
2019-05-02T00:32:37.668Z,48.10
2019-05-02T00:35:06.610Z,50.00
2019-05-02T00:37:35.548Z,50.08
2019-05-02T00:40:05.983Z,49.98
2019-05-02T00:42:34.863Z,50.88
2019-05-02T00:45:04.311Z,51.55
2019-05-02T00:47:47.773Z,50.60
2019-05-02T00:50:15.540Z,53.60
2019-05-02T00:52:44.422Z,51.37
2019-05-02T00:55:13.362Z,51.18
2019-05-02T00:57:42.227Z,52.10
2019-05-02T01:00:13.478Z,50.98
2019-05-02T01:02:46.869Z,52.25
2019-05-02T01:05:15.732Z,52.55
2019-05-02T01:07:44.600Z,51.83
2019-05-02T01:10:17.276Z,55.50
2019-05-02T01:12:45.978Z,56.37
2019-05-02T01:15:15.025Z,53.25
2019-05-02T01:17:43.888Z,56.77
2019-05-02T01:20:12.828Z,55.30
2019-05-02T01:22:41.728Z,57.15
2019-05-02T01:25:15.398Z,56.20
2019-05-02T01:27:43.404Z,57.48
2019-05-02T01:30:26.204Z,55.92
2019-05-02T01:33:01.421Z,55.60
2019-05-02T01:35:32.770Z,56.55
2019-05-02T01:38:18.384Z,56.30
2019-05-02T01:40:53.105Z,58.17
2019-05-02T01:43:24.176Z,57.17
2019-05-02T01:45:52.412Z,58.80
2019-05-02T01:48:21.359Z,58.15
2019-05-02T01:50:50.301Z,58.70
2019-05-02T01:53:19.196Z,59.95
2019-05-02T01:55:52.067Z,60.03
2019-05-02T01:58:21.017Z,61.37
2019-05-02T02:00:49.269Z,58.85
2019-05-02T02:03:18.140Z,60.98
2019-05-02T02:05:47.018Z,61.37
2019-05-02T02:08:15.889Z,59.60
2019-05-02T02:10:44.764Z,61.05
2019-05-02T02:13:13.637Z,61.28
2019-05-02T02:15:42.508Z,63.48
2019-05-02T02:18:12.812Z,61.10
2019-05-02T02:20:49.083Z,60.08
2019-05-02T02:23:27.555Z,58.52
2019-05-02T02:26:01.059Z,61.35
2019-05-02T02:28:31.959Z,60.90
2019-05-02T02:31:05.149Z,58.68
2019-05-02T02:33:31.095Z,61.65
2019-05-02T02:35:59.962Z,59.88
2019-05-02T02:38:33.633Z,60.65
2019-05-02T02:40:59.421Z,61.35
2019-05-02T02:43:33.950Z,62.98
2019-05-02T02:46:05.180Z,63.83
2019-05-02T02:48:40.428Z,61.88
2019-05-02T02:51:04.908Z,62.55
2019-05-02T02:53:33.793Z,65.25
2019-05-02T02:56:04.233Z,63.87
2019-05-02T02:58:43.993Z,62.98
2019-05-02T03:01:04.307Z,64.35
2019-05-02T03:03:35.274Z,65.22
2019-05-02T03:06:05.422Z,62.85
2019-05-02T03:08:44.527Z,63.25
2019-05-02T03:11:05.228Z,65.12
2019-05-02T03:13:51.403Z,66.33
2019-05-02T03:16:23.039Z,65.20
2019-05-02T03:18:51.967Z,66.20
2019-05-02T03:21:22.495Z,66.60
2019-05-02T03:24:02.277Z,65.25
2019-05-02T03:26:23.242Z,65.80
2019-05-02T03:28:58.568Z,65.12
2019-05-02T03:31:28.205Z,68.65
2019-05-02T03:33:59.343Z,64.30
2019-05-02T03:36:31.507Z,66.33
2019-05-02T03:38:54.412Z,68.25
2019-05-02T03:41:23.774Z,67.32
2019-05-02T03:44:10.023Z,65.72
2019-05-02T03:46:23.538Z,66.53
2019-05-02T03:48:52.564Z,65.87
2019-05-02T03:51:25.116Z,66.37
2019-05-02T03:54:06.225Z,66.00
2019-05-02T03:56:24.561Z,66.30
2019-05-02T03:58:55.925Z,68.10
2019-05-02T04:01:24.212Z,68.47
2019-05-02T04:03:53.086Z,68.33
2019-05-02T04:06:23.746Z,69.27
2019-05-02T04:08:58.884Z,70.37
2019-05-02T04:11:24.043Z,68.30
2019-05-02T04:13:53.274Z,70.30
2019-05-02T04:16:22.507Z,71.17
2019-05-02T04:18:55.763Z,69.20
2019-05-02T04:21:24.689Z,73.52
2019-05-02T04:23:53.110Z,72.92
2019-05-02T04:26:22.341Z,71.90
2019-05-02T04:28:52.113Z,72.85
2019-05-02T04:31:24.672Z,72.80
2019-05-02T04:33:52.775Z,73.12
2019-05-02T04:36:21.639Z,70.35
2019-05-02T04:38:52.409Z,75.40
2019-05-02T04:41:28.450Z,74.37
2019-05-02T04:43:57.292Z,72.00
2019-05-02T04:46:27.216Z,72.10
2019-05-02T04:48:53.294Z,72.60
2019-05-02T04:51:22.605Z,74.62
2019-05-02T04:53:51.460Z,75.30
2019-05-02T04:56:20.343Z,72.72
2019-05-02T04:58:49.769Z,71.90
2019-05-02T05:01:21.339Z,72.00
2019-05-02T05:04:01.016Z,73.40
2019-05-02T05:06:21.060Z,70.25
2019-05-02T05:08:51.232Z,72.32
2019-05-02T05:11:24.697Z,73.70
2019-05-02T05:13:52.415Z,73.07
2019-05-02T05:16:21.336Z,74.27
2019-05-02T05:18:53.088Z,73.02
2019-05-02T05:21:24.766Z,73.57
2019-05-02T05:24:01.195Z,72.55
2019-05-02T05:26:28.961Z,71.42
2019-05-02T05:28:58.308Z,73.57
2019-05-02T05:31:29.169Z,74.25
2019-05-02T05:33:58.107Z,72.03
2019-05-02T05:36:32.590Z,71.33
2019-05-02T05:38:58.236Z,69.85
2019-05-02T05:41:27.956Z,69.47
2019-05-02T05:43:57.478Z,72.70
2019-05-02T05:46:28.081Z,72.08
2019-05-02T05:48:58.271Z,71.40
2019-05-02T05:51:28.583Z,73.12
2019-05-02T05:54:02.821Z,71.02
2019-05-02T05:56:32.452Z,75.08
2019-05-02T05:58:59.297Z,74.40
2019-05-02T06:01:34.473Z,72.60
2019-05-02T06:03:58.811Z,71.53
2019-05-02T06:06:27.687Z,71.80
2019-05-02T06:08:56.547Z,72.75
2019-05-02T06:11:25.415Z,68.52
2019-05-02T06:13:57.499Z,68.15
2019-05-02T06:16:26.667Z,68.40
2019-05-02T06:18:55.523Z,66.30
2019-05-02T06:21:24.456Z,70.67
2019-05-02T06:23:53.335Z,67.08
2019-05-02T06:26:22.199Z,68.40
2019-05-02T06:28:51.059Z,66.80
2019-05-02T06:31:21.927Z,66.95
2019-05-02T06:33:51.011Z,68.60
2019-05-02T06:36:19.881Z,69.30
2019-05-02T06:38:52.337Z,70.45
2019-05-02T06:41:20.945Z,69.97
2019-05-02T06:43:49.900Z,69.00
2019-05-02T06:46:21.943Z,71.65
2019-05-02T06:48:52.390Z,71.45
2019-05-02T06:51:21.113Z,71.67
2019-05-02T06:53:50.143Z,71.67
2019-05-02T06:56:19.090Z,72.58
2019-05-02T06:58:48.043Z,72.97
2019-05-02T07:01:21.146Z,69.80
2019-05-02T07:03:47.649Z,72.67
2019-05-02T07:06:16.838Z,72.30
2019-05-02T07:08:45.786Z,74.15
2019-05-02T07:11:14.691Z,69.77
2019-05-02T07:13:43.828Z,70.62
2019-05-02T07:16:16.070Z,71.80
2019-05-02T07:18:52.682Z,69.95
2019-05-02T07:21:23.661Z,69.37
2019-05-02T07:23:53.636Z,69.50
2019-05-02T07:26:23.314Z,68.60
2019-05-02T07:28:52.725Z,70.22
2019-05-02T07:31:21.595Z,69.47
2019-05-02T07:33:50.735Z,68.10
2019-05-02T07:36:19.839Z,68.55
2019-05-02T07:38:48.707Z,66.55
2019-05-02T07:41:17.567Z,69.27
2019-05-02T07:43:46.439Z,69.00
2019-05-02T07:46:16.214Z,67.95
2019-05-02T07:48:48.970Z,68.55
2019-05-02T07:51:17.216Z,68.22
2019-05-02T07:53:48.568Z,68.92
2019-05-02T07:56:18.935Z,67.95
2019-05-02T07:58:48.148Z,67.82
2019-05-02T08:01:17.140Z,68.22
2019-05-02T08:03:45.996Z,67.03
2019-05-02T08:06:14.858Z,66.02
2019-05-02T08:08:43.717Z,68.17
2019-05-02T08:11:12.575Z,68.20
2019-05-02T08:13:41.431Z,67.27
2019-05-02T08:16:10.302Z,68.55
2019-05-02T08:18:39.159Z,70.37
2019-05-02T08:21:08.020Z,68.55
2019-05-02T08:23:37.115Z,67.97
2019-05-02T08:26:06.747Z,67.85
2019-05-02T08:28:47.065Z,68.35
2019-05-02T08:31:18.866Z,67.60
2019-05-02T08:33:44.847Z,65.08
2019-05-02T08:36:13.703Z,64.50
2019-05-02T08:38:42.559Z,66.65
2019-05-02T08:41:11.419Z,65.75
2019-05-02T08:43:44.923Z,63.60
2019-05-02T08:46:14.413Z,63.63
2019-05-02T08:48:43.726Z,63.02
2019-05-02T08:51:12.396Z,63.05
2019-05-02T08:53:41.255Z,63.28
2019-05-02T08:56:10.115Z,59.40
2019-05-02T08:58:38.979Z,58.28
2019-05-02T09:01:09.126Z,59.90
2019-05-02T09:03:54.864Z,60.70
2019-05-02T09:06:09.811Z,59.67
2019-05-02T09:08:38.670Z,59.42
2019-05-02T09:11:07.527Z,57.80
2019-05-02T09:13:36.391Z,56.95
2019-05-02T09:16:06.041Z,58.05
2019-05-02T09:18:38.246Z,57.25
2019-05-02T09:21:05.635Z,57.95
2019-05-02T09:23:37.010Z,58.20
2019-05-02T09:26:05.119Z,56.45
2019-05-02T09:28:33.983Z,59.40
2019-05-02T09:31:06.475Z,57.45
2019-05-02T09:33:36.884Z,55.45
2019-05-02T09:36:04.318Z,56.95
2019-05-02T09:38:33.174Z,57.08
2019-05-02T09:41:15.374Z,55.20
2019-05-02T09:43:37.508Z,54.33
2019-05-02T09:46:07.225Z,50.65
2019-05-02T09:48:34.013Z,50.35
2019-05-02T09:51:04.595Z,51.15
2019-05-02T09:53:33.437Z,52.13
2019-05-02T09:56:02.343Z,51.05
2019-05-02T09:58:32.019Z,46.28
2019-05-02T10:01:02.707Z,47.35
2019-05-02T10:03:32.040Z,46.73
2019-05-02T10:06:02.901Z,46.48
2019-05-02T10:08:32.131Z,48.05
2019-05-02T10:11:02.834Z,44.98
2019-05-02T10:13:32.617Z,44.85
2019-05-02T10:16:02.119Z,45.17
2019-05-02T10:18:32.989Z,44.63
2019-05-02T10:21:03.064Z,42.83
2019-05-02T10:23:32.283Z,43.33
2019-05-02T10:26:02.858Z,41.42
2019-05-02T10:28:31.995Z,44.20
2019-05-02T10:31:09.809Z,39.35
2019-05-02T10:33:38.676Z,42.65
2019-05-02T10:36:13.142Z,41.68
2019-05-02T10:38:38.087Z,41.00
2019-05-02T10:41:06.985Z,42.30
2019-05-02T10:43:35.883Z,37.70
2019-05-02T10:46:09.388Z,35.83
2019-05-02T10:48:41.631Z,38.08
2019-05-02T10:51:18.264Z,38.28
2019-05-02T10:53:52.652Z,40.43
2019-05-02T10:56:17.979Z,37.65
2019-05-02T10:58:47.986Z,34.85
2019-05-02T11:01:17.795Z,38.65
2019-05-02T11:03:52.394Z,38.88
2019-05-02T11:06:22.283Z,36.63
2019-05-02T11:08:52.394Z,34.75
2019-05-02T11:11:22.281Z,31.27
2019-05-02T11:14:00.617Z,28.80
2019-05-02T11:16:28.699Z,33.63
2019-05-02T11:19:05.262Z,33.45
2019-05-02T11:21:34.436Z,35.10
2019-05-02T11:24:03.584Z,36.00
2019-05-02T11:26:32.683Z,34.38
2019-05-02T11:29:02.967Z,33.67
2019-05-02T11:31:32.553Z,31.52
2019-05-02T11:34:01.926Z,30.10
2019-05-02T11:36:32.785Z,29.82
2019-05-02T11:39:11.835Z,29.07
2019-05-02T11:41:33.609Z,30.23
2019-05-02T11:44:02.940Z,28.47
2019-05-02T11:46:33.041Z,30.80
2019-05-02T11:49:02.536Z,28.35
2019-05-02T11:51:32.666Z,27.07
2019-05-02T11:54:05.091Z,24.18
2019-05-02T11:56:32.982Z,25.65
2019-05-02T11:59:02.828Z,26.70
2019-05-02T12:01:37.101Z,22.27
2019-05-02T12:04:03.116Z,24.20
2019-05-02T12:06:33.298Z,24.75
2019-05-02T12:09:02.664Z,22.32
2019-05-02T12:11:32.599Z,22.52
2019-05-02T12:14:01.865Z,20.25
2019-05-02T12:16:32.309Z,20.62
2019-05-02T12:19:09.603Z,21.12
2019-05-02T12:21:32.632Z,20.37
2019-05-02T12:24:02.273Z,20.25
2019-05-02T12:26:32.391Z,19.20
2019-05-02T12:29:02.574Z,20.15
2019-05-02T12:31:32.628Z,20.12
2019-05-02T12:34:03.892Z,20.37
2019-05-02T12:36:33.345Z,20.75
2019-05-02T12:39:02.689Z,22.02
2019-05-02T12:41:33.335Z,22.25
2019-05-02T12:44:02.426Z,22.22
2019-05-02T12:46:31.858Z,22.00
2019-05-02T12:49:02.770Z,24.18
2019-05-02T12:51:31.992Z,21.48
2019-05-02T12:54:02.309Z,21.40
2019-05-02T12:56:32.381Z,21.23
2019-05-02T12:59:02.663Z,20.23
2019-05-02T13:01:33.040Z,20.65
2019-05-02T13:04:04.020Z,21.12
2019-05-02T13:06:32.992Z,20.77
2019-05-02T13:09:03.106Z,20.23
2019-05-02T13:11:52.431Z,22.22
2019-05-02T13:14:23.034Z,19.40
2019-05-02T13:16:53.628Z,20.72
2019-05-02T13:19:36.808Z,20.43
2019-05-02T13:21:59.683Z,20.75
2019-05-02T13:24:32.444Z,20.15
2019-05-02T13:27:04.027Z,18.45
2019-05-02T13:29:32.242Z,17.02
2019-05-02T13:32:08.636Z,16.42
2019-05-02T13:34:57.068Z,16.73
2019-05-02T13:37:25.371Z,17.15
2019-05-02T13:40:02.550Z,16.97
2019-05-02T13:42:33.687Z,15.25
2019-05-02T13:45:04.407Z,16.48
2019-05-02T13:47:33.347Z,18.48
2019-05-02T13:50:03.901Z,17.07
2019-05-02T13:52:33.348Z,17.05
2019-05-02T13:55:02.600Z,18.07
2019-05-02T13:57:34.955Z,18.85
2019-05-02T14:00:02.432Z,19.25
2019-05-02T14:02:42.654Z,19.25
2019-05-02T14:05:12.867Z,18.48
2019-05-02T14:07:43.580Z,19.90
2019-05-02T14:10:39.212Z,21.37
2019-05-02T14:13:03.967Z,20.82
2019-05-02T14:15:34.538Z,23.05
2019-05-02T14:18:03.459Z,22.17
2019-05-02T14:20:33.070Z,22.90
2019-05-02T14:23:02.378Z,21.93
2019-05-02T14:25:32.287Z,21.30
2019-05-02T14:28:02.907Z,21.15
2019-05-02T14:30:39.953Z,19.92
2019-05-02T14:33:04.072Z,20.45
2019-05-02T14:35:36.272Z,21.75
2019-05-02T14:38:08.928Z,19.82
2019-05-02T14:40:42.356Z,23.55
2019-05-02T14:43:12.905Z,23.12
2019-05-02T14:45:43.729Z,21.33
2019-05-02T14:48:21.095Z,24.92
2019-05-02T14:50:45.796Z,22.30
2019-05-02T14:53:16.779Z,23.98
2019-05-02T14:55:47.403Z,23.38
2019-05-02T14:58:16.263Z,23.50
2019-05-02T15:00:48.105Z,22.98
2019-05-02T15:03:19.122Z,24.32
2019-05-02T15:05:47.559Z,23.18
2019-05-02T15:08:16.423Z,23.40
2019-05-02T15:10:52.403Z,21.82
2019-05-02T15:13:15.845Z,25.12
2019-05-02T15:15:44.711Z,21.55
2019-05-02T15:18:17.516Z,21.80
2019-05-02T15:20:44.103Z,20.70
2019-05-02T15:23:19.531Z,20.68
2019-05-02T15:25:47.216Z,20.52
2019-05-02T15:28:22.912Z,19.30
2019-05-02T15:31:06.210Z,23.32
2019-05-02T15:33:48.508Z,22.15
2019-05-02T15:36:17.358Z,23.38
2019-05-02T15:38:47.524Z,23.18
2019-05-02T15:41:16.474Z,22.58
2019-05-02T15:43:49.180Z,22.67
2019-05-02T15:46:22.649Z,21.97
2019-05-02T15:48:47.339Z,21.65
2019-05-02T15:51:16.211Z,21.00
2019-05-02T15:53:49.710Z,19.42
2019-05-02T15:56:20.423Z,19.62
2019-05-02T15:58:47.833Z,19.15
2019-05-02T16:01:18.334Z,19.10
2019-05-02T16:03:52.304Z,18.37
2019-05-02T16:06:28.316Z,17.65
2019-05-02T16:08:52.151Z,17.50
2019-05-02T16:11:22.931Z,16.30
2019-05-02T16:13:55.889Z,16.32
2019-05-02T16:16:23.245Z,16.42
2019-05-02T16:18:53.167Z,15.20
2019-05-02T16:21:35.819Z,15.45
2019-05-02T16:24:22.945Z,15.03
2019-05-02T16:26:52.964Z,13.98
2019-05-02T16:29:26.861Z,14.18
2019-05-02T16:31:59.561Z,13.70
2019-05-02T16:34:27.354Z,13.18
2019-05-02T16:37:15.003Z,13.93
2019-05-02T16:39:49.442Z,14.38
2019-05-02T16:42:13.915Z,14.15
2019-05-02T16:44:43.068Z,13.30
2019-05-02T16:47:14.021Z,12.28
2019-05-02T16:49:48.022Z,15.45
2019-05-02T16:52:16.206Z,40.48
2019-05-02T16:54:45.270Z,46.95
2019-05-02T16:57:17.399Z,51.20
2019-05-02T16:59:44.932Z,50.55
2019-05-02T17:02:14.111Z,82.62
2019-05-02T17:04:43.319Z,11.93
2019-05-02T17:07:16.563Z,9.20
2019-05-02T17:10:03.037Z,15.68
2019-05-02T17:12:32.268Z,9.88
2019-05-02T17:15:19.023Z,8.68
2019-05-02T17:17:47.878Z,7.87
2019-05-02T17:20:17.093Z,8.63
2019-05-02T17:22:50.207Z,9.40
2019-05-02T17:25:16.751Z,8.68
2019-05-02T17:27:46.570Z,8.85
2019-05-02T17:30:16.468Z,8.95
2019-05-02T17:32:45.387Z,7.95
2019-05-02T17:35:14.719Z,9.18
2019-05-02T17:37:48.722Z,9.75
2019-05-02T17:40:16.881Z,10.58
2019-05-02T17:42:45.027Z,10.08
2019-05-02T17:45:14.159Z,10.80
2019-05-02T17:47:43.111Z,10.65
2019-05-02T17:50:22.047Z,12.58
2019-05-02T17:52:56.191Z,12.20
2019-05-02T17:55:23.631Z,11.63
2019-05-02T17:57:52.515Z,12.25
2019-05-02T18:00:23.093Z,12.55
2019-05-02T18:02:53.372Z,12.58
2019-05-02T18:05:26.527Z,12.45
2019-05-02T18:07:53.270Z,12.93
2019-05-02T18:10:24.882Z,13.05
2019-05-02T18:12:58.139Z,12.53
2019-05-02T18:15:25.384Z,13.80
2019-05-02T18:17:54.329Z,13.48
2019-05-02T18:20:25.406Z,13.68
2019-05-02T18:22:54.764Z,14.20
2019-05-02T18:25:25.206Z,13.15
2019-05-02T18:27:54.294Z,14.13
2019-05-02T18:30:26.919Z,13.88
2019-05-02T18:32:57.715Z,13.90
2019-05-02T18:35:24.309Z,13.18
2019-05-02T18:37:53.253Z,14.83
2019-05-02T18:40:27.778Z,14.68
2019-05-02T18:42:56.619Z,14.13
2019-05-02T18:45:28.562Z,14.00
2019-05-02T18:48:02.352Z,13.75
2019-05-02T18:50:28.426Z,13.58
2019-05-02T18:52:58.223Z,14.65
2019-05-02T18:55:27.147Z,14.95
2019-05-02T18:57:56.989Z,14.68
2019-05-02T19:00:27.967Z,14.65
2019-05-02T19:02:57.658Z,15.83
2019-05-02T19:05:26.682Z,16.32
2019-05-02T19:07:56.547Z,16.48
2019-05-02T19:10:25.557Z,17.23
2019-05-02T19:12:56.060Z,16.10
2019-05-02T19:15:24.996Z,17.42
2019-05-02T19:17:53.863Z,16.37
2019-05-02T19:20:25.379Z,15.83
2019-05-02T19:22:56.789Z,15.15
2019-05-02T19:25:25.159Z,14.63
2019-05-02T19:28:02.852Z,15.03
2019-05-02T19:30:33.773Z,14.58
2019-05-02T19:33:07.506Z,14.98
2019-05-02T19:35:37.688Z,14.65
2019-05-02T19:38:04.243Z,14.47
2019-05-02T19:40:33.111Z,14.55
2019-05-02T19:43:06.110Z,15.23
2019-05-02T19:45:32.813Z,14.63
2019-05-02T19:48:02.645Z,14.80
2019-05-02T19:50:40.315Z,13.93
2019-05-02T19:53:04.628Z,13.25
2019-05-02T19:55:34.208Z,14.15
2019-05-02T19:58:06.448Z,12.93
2019-05-02T20:00:36.587Z,12.65
2019-05-02T20:03:06.624Z,12.75
2019-05-02T20:05:35.547Z,12.25
2019-05-02T20:08:04.495Z,12.68
2019-05-02T20:10:33.655Z,11.95
2019-05-02T20:13:03.071Z,11.80
2019-05-02T20:15:33.948Z,11.60
2019-05-02T20:18:04.640Z,11.63
2019-05-02T20:20:40.472Z,12.07
2019-05-02T20:23:17.865Z,10.60
2019-05-02T20:25:42.610Z,9.93
2019-05-02T20:28:11.922Z,10.10
2019-05-02T20:30:42.145Z,9.53
2019-05-02T20:33:12.883Z,9.70
2019-05-02T20:35:42.163Z,9.38
2019-05-02T20:38:13.264Z,7.90
2019-05-02T20:40:42.662Z,8.00
2019-05-02T20:43:12.183Z,8.05
2019-05-02T20:45:41.127Z,7.78
2019-05-02T20:48:11.772Z,6.62
2019-05-02T20:50:42.303Z,7.30
2019-05-02T20:53:12.826Z,7.05
2019-05-02T20:55:41.777Z,8.05
2019-05-02T20:58:12.574Z,9.33
2019-05-02T21:00:42.680Z,8.83
2019-05-02T21:03:12.013Z,9.65
2019-05-02T21:05:57.647Z,9.43
2019-05-02T21:08:33.724Z,9.68
2019-05-02T21:11:04.291Z,9.43
2019-05-02T21:13:33.156Z,8.95
2019-05-02T21:16:03.262Z,8.58
2019-05-02T21:18:32.832Z,8.80
2019-05-02T21:21:05.073Z,8.68
2019-05-02T21:23:43.832Z,8.83
2019-05-02T21:26:05.553Z,9.85
2019-05-02T21:28:34.399Z,9.08
2019-05-02T21:31:03.327Z,9.33
2019-05-02T21:33:33.336Z,8.90
2019-05-02T21:36:02.250Z,9.38
2019-05-02T21:38:31.964Z,8.60
2019-05-02T21:41:01.207Z,8.93
2019-05-02T21:43:31.671Z,9.35
2019-05-02T21:46:02.375Z,9.28
2019-05-02T21:48:32.643Z,9.20
2019-05-02T21:51:05.995Z,9.55
2019-05-02T21:53:55.131Z,9.75
2019-05-02T21:56:21.784Z,9.90
2019-05-02T21:59:07.675Z,9.98
2019-05-02T22:01:42.069Z,9.83
2019-05-02T22:04:12.905Z,9.50
2019-05-02T22:06:42.775Z,10.05
2019-05-02T22:09:13.040Z,9.10
2019-05-02T22:11:43.023Z,9.30
2019-05-02T22:14:13.610Z,9.73
2019-05-02T22:16:42.711Z,9.15
2019-05-02T22:19:12.519Z,9.10
2019-05-02T22:21:43.054Z,9.25
2019-05-02T22:24:14.288Z,9.33
2019-05-02T22:26:43.559Z,9.00
2019-05-02T22:29:12.630Z,9.50
2019-05-02T22:31:43.026Z,9.70
2019-05-02T22:34:12.889Z,10.48
2019-05-02T22:36:42.754Z,10.28
2019-05-02T22:39:31.733Z,10.50
2019-05-02T22:42:01.999Z,11.22
2019-05-02T22:44:32.507Z,10.85
2019-05-02T22:47:01.498Z,11.78
2019-05-02T22:49:31.831Z,11.95
2019-05-02T22:52:00.965Z,12.03
2019-05-02T22:54:33.306Z,11.65
2019-05-02T22:57:02.559Z,10.75
2019-05-02T22:59:31.799Z,11.63
2019-05-02T23:02:02.126Z,11.22
2019-05-02T23:04:32.561Z,11.48
2019-05-02T23:07:02.329Z,13.08
2019-05-02T23:09:31.595Z,13.58
2019-05-02T23:12:02.615Z,11.80
2019-05-02T23:14:32.499Z,13.22
2019-05-02T23:17:02.084Z,13.83
2019-05-02T23:19:31.679Z,15.25
2019-05-02T23:22:02.140Z,15.80
2019-05-02T23:24:49.079Z,14.53
2019-05-02T23:27:25.315Z,15.08
2019-05-02T23:29:54.175Z,15.65
2019-05-02T23:32:23.897Z,16.87
2019-05-02T23:34:52.874Z,16.55
2019-05-02T23:37:23.081Z,17.23
2019-05-02T23:39:52.270Z,17.30
2019-05-02T23:42:21.875Z,18.30
2019-05-02T23:44:51.939Z,20.30
2019-05-02T23:47:22.477Z,19.82
2019-05-02T23:49:52.056Z,21.52
2019-05-02T23:52:22.496Z,21.17
2019-05-02T23:54:52.460Z,22.25
2019-05-02T23:57:22.944Z,20.92
2019-05-02T23:59:52.027Z,21.23
